sensor_id;sensor_type;location;lat;lon;timestamp;P1;durP1;ratioP1;P2;durP2;ratioP2
28266;SDS011;15525;45.568;5.448;2022-09-25T00:01:06;3.30;;;2.53;;
28266;SDS011;15525;45.568;5.448;2022-09-25T00:03:32;3.50;;;2.30;;
28266;SDS011;15525;45.568;5.448;2022-09-25T00:06:02;3.38;;;2.60;;
28266;SDS011;15525;45.568;5.448;2022-09-25T00:08:30;3.33;;;2.50;;
28266;SDS011;15525;45.568;5.448;2022-09-25T00:10:56;4.65;;;2.03;;
28266;SDS011;15525;45.568;5.448;2022-09-25T00:13:21;3.70;;;2.13;;
28266;SDS011;15525;45.568;5.448;2022-09-25T00:15:48;3.97;;;2.00;;
28266;SDS011;15525;45.568;5.448;2022-09-25T00:18:16;3.80;;;2.28;;
28266;SDS011;15525;45.568;5.448;2022-09-25T00:21:03;4.80;;;2.58;;
28266;SDS011;15525;45.568;5.448;2022-09-25T00:23:29;3.97;;;2.97;;
28266;SDS011;15525;45.568;5.448;2022-09-25T00:25:55;8.15;;;3.60;;
28266;SDS011;15525;45.568;5.448;2022-09-25T00:28:21;5.55;;;3.55;;
28266;SDS011;15525;45.568;5.448;2022-09-25T00:30:46;5.82;;;3.78;;
28266;SDS011;15525;45.568;5.448;2022-09-25T00:33:12;4.22;;;3.15;;
28266;SDS011;15525;45.568;5.448;2022-09-25T00:35:37;6.20;;;3.92;;
28266;SDS011;15525;45.568;5.448;2022-09-25T00:38:03;11.80;;;6.03;;
28266;SDS011;15525;45.568;5.448;2022-09-25T00:40:28;11.43;;;6.72;;
28266;SDS011;15525;45.568;5.448;2022-09-25T00:42:53;10.73;;;7.07;;
28266;SDS011;15525;45.568;5.448;2022-09-25T00:45:19;11.95;;;7.55;;
28266;SDS011;15525;45.568;5.448;2022-09-25T00:50:21;8.48;;;5.50;;
28266;SDS011;15525;45.568;5.448;2022-09-25T00:52:53;8.73;;;6.05;;
28266;SDS011;15525;45.568;5.448;2022-09-25T00:55:23;10.43;;;6.45;;
28266;SDS011;15525;45.568;5.448;2022-09-25T00:57:50;12.85;;;7.72;;
28266;SDS011;15525;45.568;5.448;2022-09-25T01:00:20;13.85;;;7.95;;
28266;SDS011;15525;45.568;5.448;2022-09-25T01:02:46;15.07;;;8.57;;
28266;SDS011;15525;45.568;5.448;2022-09-25T01:05:18;19.17;;;9.45;;
28266;SDS011;15525;45.568;5.448;2022-09-25T01:07:46;21.20;;;10.38;;
28266;SDS011;15525;45.568;5.448;2022-09-25T01:10:14;28.85;;;11.10;;
28266;SDS011;15525;45.568;5.448;2022-09-25T01:12:43;20.73;;;11.25;;
28266;SDS011;15525;45.568;5.448;2022-09-25T01:15:12;24.83;;;11.55;;
28266;SDS011;15525;45.568;5.448;2022-09-25T01:23:44;23.10;;;11.52;;
28266;SDS011;15525;45.568;5.448;2022-09-25T01:37:28;16.80;;;9.10;;
28266;SDS011;15525;45.568;5.448;2022-09-25T01:40:10;13.80;;;8.60;;
28266;SDS011;15525;45.568;5.448;2022-09-25T01:42:53;14.13;;;7.95;;
28266;SDS011;15525;45.568;5.448;2022-09-25T01:45:58;12.13;;;7.35;;
28266;SDS011;15525;45.568;5.448;2022-09-25T01:48:27;11.20;;;7.13;;
28266;SDS011;15525;45.568;5.448;2022-09-25T01:50:56;12.38;;;7.85;;
28266;SDS011;15525;45.568;5.448;2022-09-25T01:53:28;10.90;;;6.90;;
28266;SDS011;15525;45.568;5.448;2022-09-25T01:56:04;10.63;;;6.88;;
28266;SDS011;15525;45.568;5.448;2022-09-25T01:58:37;10.38;;;6.80;;
28266;SDS011;15525;45.568;5.448;2022-09-25T02:01:09;9.23;;;6.65;;
28266;SDS011;15525;45.568;5.448;2022-09-25T02:03:47;9.65;;;6.63;;
28266;SDS011;15525;45.568;5.448;2022-09-25T02:06:20;10.00;;;6.95;;
28266;SDS011;15525;45.568;5.448;2022-09-25T02:08:47;9.90;;;6.95;;
28266;SDS011;15525;45.568;5.448;2022-09-25T02:11:19;12.13;;;7.57;;
28266;SDS011;15525;45.568;5.448;2022-09-25T02:13:46;10.98;;;7.35;;
28266;SDS011;15525;45.568;5.448;2022-09-25T02:16:19;11.70;;;7.80;;
28266;SDS011;15525;45.568;5.448;2022-09-25T02:18:50;10.38;;;7.22;;
28266;SDS011;15525;45.568;5.448;2022-09-25T02:22:22;12.40;;;8.07;;
28266;SDS011;15525;45.568;5.448;2022-09-25T02:24:49;12.57;;;7.85;;
28266;SDS011;15525;45.568;5.448;2022-09-25T02:27:21;11.95;;;8.02;;
28266;SDS011;15525;45.568;5.448;2022-09-25T02:29:47;15.13;;;8.48;;
28266;SDS011;15525;45.568;5.448;2022-09-25T02:32:13;12.70;;;8.25;;
28266;SDS011;15525;45.568;5.448;2022-09-25T02:34:43;13.60;;;8.32;;
28266;SDS011;15525;45.568;5.448;2022-09-25T02:37:12;14.93;;;8.55;;
28266;SDS011;15525;45.568;5.448;2022-09-25T02:39:38;16.55;;;9.68;;
28266;SDS011;15525;45.568;5.448;2022-09-25T02:44:57;12.02;;;8.15;;
28266;SDS011;15525;45.568;5.448;2022-09-25T02:50:56;14.85;;;9.40;;
28266;SDS011;15525;45.568;5.448;2022-09-25T02:58:56;14.20;;;9.13;;
28266;SDS011;15525;45.568;5.448;2022-09-25T03:01:27;15.70;;;9.40;;
28266;SDS011;15525;45.568;5.448;2022-09-25T03:03:55;15.27;;;9.45;;
28266;SDS011;15525;45.568;5.448;2022-09-25T03:06:23;15.27;;;9.38;;
28266;SDS011;15525;45.568;5.448;2022-09-25T03:08:51;13.32;;;8.57;;
28266;SDS011;15525;45.568;5.448;2022-09-25T03:11:21;11.23;;;7.45;;
28266;SDS011;15525;45.568;5.448;2022-09-25T03:14:01;12.88;;;8.68;;
28266;SDS011;15525;45.568;5.448;2022-09-25T03:19:13;11.85;;;8.02;;
28266;SDS011;15525;45.568;5.448;2022-09-25T03:21:40;12.63;;;8.05;;
28266;SDS011;15525;45.568;5.448;2022-09-25T03:24:05;11.15;;;7.60;;
28266;SDS011;15525;45.568;5.448;2022-09-25T03:26:31;12.07;;;7.78;;
28266;SDS011;15525;45.568;5.448;2022-09-25T03:28:57;11.63;;;8.40;;
28266;SDS011;15525;45.568;5.448;2022-09-25T03:31:26;13.50;;;8.32;;
28266;SDS011;15525;45.568;5.448;2022-09-25T03:33:53;14.75;;;9.50;;
28266;SDS011;15525;45.568;5.448;2022-09-25T03:36:20;12.38;;;7.95;;
28266;SDS011;15525;45.568;5.448;2022-09-25T03:38:49;12.63;;;8.13;;
28266;SDS011;15525;45.568;5.448;2022-09-25T03:41:17;12.45;;;8.57;;
28266;SDS011;15525;45.568;5.448;2022-09-25T03:43:45;12.48;;;7.13;;
28266;SDS011;15525;45.568;5.448;2022-09-25T03:46:15;15.63;;;8.02;;
28266;SDS011;15525;45.568;5.448;2022-09-25T03:48:42;14.48;;;8.77;;
28266;SDS011;15525;45.568;5.448;2022-09-25T03:51:08;14.43;;;8.32;;
28266;SDS011;15525;45.568;5.448;2022-09-25T03:53:34;12.27;;;7.90;;
28266;SDS011;15525;45.568;5.448;2022-09-25T03:56:00;12.35;;;8.40;;
28266;SDS011;15525;45.568;5.448;2022-09-25T03:58:31;12.32;;;8.43;;
28266;SDS011;15525;45.568;5.448;2022-09-25T04:00:57;13.32;;;8.70;;
28266;SDS011;15525;45.568;5.448;2022-09-25T04:03:25;13.70;;;8.80;;
28266;SDS011;15525;45.568;5.448;2022-09-25T04:05:53;12.60;;;8.13;;
28266;SDS011;15525;45.568;5.448;2022-09-25T04:08:20;14.63;;;7.57;;
28266;SDS011;15525;45.568;5.448;2022-09-25T04:10:47;13.88;;;8.95;;
28266;SDS011;15525;45.568;5.448;2022-09-25T04:13:12;13.13;;;8.43;;
28266;SDS011;15525;45.568;5.448;2022-09-25T04:15:38;11.43;;;7.35;;
28266;SDS011;15525;45.568;5.448;2022-09-25T04:18:05;11.60;;;7.90;;
28266;SDS011;15525;45.568;5.448;2022-09-25T04:20:31;11.10;;;7.45;;
28266;SDS011;15525;45.568;5.448;2022-09-25T04:22:57;14.10;;;9.25;;
28266;SDS011;15525;45.568;5.448;2022-09-25T04:25:22;12.88;;;8.38;;
28266;SDS011;15525;45.568;5.448;2022-09-25T04:27:51;14.18;;;8.45;;
28266;SDS011;15525;45.568;5.448;2022-09-25T04:30:19;11.70;;;8.07;;
28266;SDS011;15525;45.568;5.448;2022-09-25T04:32:45;12.80;;;8.30;;
28266;SDS011;15525;45.568;5.448;2022-09-25T04:35:29;16.40;;;8.98;;
28266;SDS011;15525;45.568;5.448;2022-09-25T04:37:54;14.98;;;9.10;;
28266;SDS011;15525;45.568;5.448;2022-09-25T04:40:20;13.63;;;8.73;;
28266;SDS011;15525;45.568;5.448;2022-09-25T04:42:45;13.02;;;9.00;;
28266;SDS011;15525;45.568;5.448;2022-09-25T04:45:11;15.30;;;8.82;;
28266;SDS011;15525;45.568;5.448;2022-09-25T04:47:36;15.73;;;9.73;;
28266;SDS011;15525;45.568;5.448;2022-09-25T04:50:02;16.65;;;10.18;;
28266;SDS011;15525;45.568;5.448;2022-09-25T04:52:27;17.42;;;10.82;;
28266;SDS011;15525;45.568;5.448;2022-09-25T04:54:55;18.33;;;11.27;;
28266;SDS011;15525;45.568;5.448;2022-09-25T04:57:20;21.55;;;12.65;;
28266;SDS011;15525;45.568;5.448;2022-09-25T04:59:47;20.85;;;12.15;;
28266;SDS011;15525;45.568;5.448;2022-09-25T05:02:15;21.27;;;12.48;;
28266;SDS011;15525;45.568;5.448;2022-09-25T05:04:41;22.48;;;12.50;;
28266;SDS011;15525;45.568;5.448;2022-09-25T05:07:06;22.20;;;12.77;;
28266;SDS011;15525;45.568;5.448;2022-09-25T05:09:32;21.95;;;12.75;;
28266;SDS011;15525;45.568;5.448;2022-09-25T05:11:57;23.00;;;12.27;;
28266;SDS011;15525;45.568;5.448;2022-09-25T05:14:23;25.10;;;12.70;;
28266;SDS011;15525;45.568;5.448;2022-09-25T05:16:50;28.92;;;14.23;;
28266;SDS011;15525;45.568;5.448;2022-09-25T05:19:15;25.35;;;14.27;;
28266;SDS011;15525;45.568;5.448;2022-09-25T05:21:41;24.63;;;12.93;;
28266;SDS011;15525;45.568;5.448;2022-09-25T05:24:07;27.10;;;13.57;;
28266;SDS011;15525;45.568;5.448;2022-09-25T05:26:34;22.88;;;13.20;;
28266;SDS011;15525;45.568;5.448;2022-09-25T05:29:01;23.75;;;13.10;;
28266;SDS011;15525;45.568;5.448;2022-09-25T05:31:28;24.83;;;14.00;;
28266;SDS011;15525;45.568;5.448;2022-09-25T05:33:53;29.02;;;14.32;;
28266;SDS011;15525;45.568;5.448;2022-09-25T05:36:19;25.85;;;14.02;;
28266;SDS011;15525;45.568;5.448;2022-09-25T05:38:44;27.95;;;14.32;;
28266;SDS011;15525;45.568;5.448;2022-09-25T05:41:10;28.45;;;14.95;;
28266;SDS011;15525;45.568;5.448;2022-09-25T05:43:39;25.00;;;13.88;;
28266;SDS011;15525;45.568;5.448;2022-09-25T05:46:07;29.75;;;14.43;;
28266;SDS011;15525;45.568;5.448;2022-09-25T05:48:33;27.17;;;14.38;;
28266;SDS011;15525;45.568;5.448;2022-09-25T05:50:58;27.48;;;14.52;;
28266;SDS011;15525;45.568;5.448;2022-09-25T05:53:24;27.77;;;14.38;;
28266;SDS011;15525;45.568;5.448;2022-09-25T05:55:51;29.75;;;14.02;;
28266;SDS011;15525;45.568;5.448;2022-09-25T05:58:17;29.70;;;14.02;;
28266;SDS011;15525;45.568;5.448;2022-09-25T06:00:43;26.27;;;13.77;;
28266;SDS011;15525;45.568;5.448;2022-09-25T06:03:09;26.08;;;13.35;;
28266;SDS011;15525;45.568;5.448;2022-09-25T06:05:36;28.23;;;14.05;;
28266;SDS011;15525;45.568;5.448;2022-09-25T06:08:02;30.88;;;14.00;;
28266;SDS011;15525;45.568;5.448;2022-09-25T06:10:27;28.08;;;14.15;;
28266;SDS011;15525;45.568;5.448;2022-09-25T06:12:57;29.33;;;15.23;;
28266;SDS011;15525;45.568;5.448;2022-09-25T06:15:23;29.20;;;14.65;;
28266;SDS011;15525;45.568;5.448;2022-09-25T06:17:53;25.60;;;13.68;;
28266;SDS011;15525;45.568;5.448;2022-09-25T06:20:19;28.95;;;14.82;;
28266;SDS011;15525;45.568;5.448;2022-09-25T06:22:56;27.85;;;13.75;;
28266;SDS011;15525;45.568;5.448;2022-09-25T06:25:23;29.00;;;14.50;;
28266;SDS011;15525;45.568;5.448;2022-09-25T06:27:56;27.25;;;14.35;;
28266;SDS011;15525;45.568;5.448;2022-09-25T06:30:24;26.92;;;13.52;;
28266;SDS011;15525;45.568;5.448;2022-09-25T06:32:58;27.95;;;13.95;;
28266;SDS011;15525;45.568;5.448;2022-09-25T06:35:42;25.80;;;12.73;;
28266;SDS011;15525;45.568;5.448;2022-09-25T06:38:09;21.08;;;12.55;;
28266;SDS011;15525;45.568;5.448;2022-09-25T06:40:35;24.52;;;12.45;;
28266;SDS011;15525;45.568;5.448;2022-09-25T06:43:04;25.17;;;12.52;;
28266;SDS011;15525;45.568;5.448;2022-09-25T06:45:31;24.02;;;12.90;;
28266;SDS011;15525;45.568;5.448;2022-09-25T06:48:01;24.10;;;12.88;;
28266;SDS011;15525;45.568;5.448;2022-09-25T06:50:31;22.52;;;12.43;;
28266;SDS011;15525;45.568;5.448;2022-09-25T06:53:03;22.42;;;12.23;;
28266;SDS011;15525;45.568;5.448;2022-09-25T06:55:29;22.02;;;12.52;;
28266;SDS011;15525;45.568;5.448;2022-09-25T06:57:59;26.05;;;14.05;;
28266;SDS011;15525;45.568;5.448;2022-09-25T07:00:25;21.67;;;12.60;;
28266;SDS011;15525;45.568;5.448;2022-09-25T07:02:51;23.50;;;13.50;;
28266;SDS011;15525;45.568;5.448;2022-09-25T07:05:35;20.63;;;12.85;;
28266;SDS011;15525;45.568;5.448;2022-09-25T07:08:01;23.85;;;14.43;;
28266;SDS011;15525;45.568;5.448;2022-09-25T07:10:26;26.67;;;15.13;;
28266;SDS011;15525;45.568;5.448;2022-09-25T07:12:52;23.45;;;13.93;;
28266;SDS011;15525;45.568;5.448;2022-09-25T07:15:17;25.63;;;14.80;;
28266;SDS011;15525;45.568;5.448;2022-09-25T07:17:43;30.73;;;16.63;;
28266;SDS011;15525;45.568;5.448;2022-09-25T07:20:10;29.02;;;16.20;;
28266;SDS011;15525;45.568;5.448;2022-09-25T07:22:39;32.83;;;16.40;;
28266;SDS011;15525;45.568;5.448;2022-09-25T07:25:05;33.85;;;17.45;;
28266;SDS011;15525;45.568;5.448;2022-09-25T07:27:31;29.83;;;16.67;;
28266;SDS011;15525;45.568;5.448;2022-09-25T07:29:56;32.05;;;16.98;;
28266;SDS011;15525;45.568;5.448;2022-09-25T07:32:22;33.05;;;17.38;;
28266;SDS011;15525;45.568;5.448;2022-09-25T07:34:47;34.40;;;17.75;;
28266;SDS011;15525;45.568;5.448;2022-09-25T07:37:18;33.20;;;18.30;;
28266;SDS011;15525;45.568;5.448;2022-09-25T07:39:43;29.55;;;17.60;;
28266;SDS011;15525;45.568;5.448;2022-09-25T07:42:08;30.67;;;17.70;;
28266;SDS011;15525;45.568;5.448;2022-09-25T07:44:34;30.50;;;17.90;;
28266;SDS011;15525;45.568;5.448;2022-09-25T07:47:00;29.02;;;16.75;;
28266;SDS011;15525;45.568;5.448;2022-09-25T07:49:26;26.63;;;15.40;;
28266;SDS011;15525;45.568;5.448;2022-09-25T07:51:53;29.35;;;16.42;;
28266;SDS011;15525;45.568;5.448;2022-09-25T07:54:18;30.30;;;17.58;;
28266;SDS011;15525;45.568;5.448;2022-09-25T07:56:44;22.63;;;13.93;;
28266;SDS011;15525;45.568;5.448;2022-09-25T07:59:09;21.08;;;13.32;;
28266;SDS011;15525;45.568;5.448;2022-09-25T08:01:34;19.73;;;11.25;;
28266;SDS011;15525;45.568;5.448;2022-09-25T08:04:00;16.17;;;10.20;;
28266;SDS011;15525;45.568;5.448;2022-09-25T08:06:25;14.35;;;9.35;;
28266;SDS011;15525;45.568;5.448;2022-09-25T08:08:51;15.50;;;10.52;;
28266;SDS011;15525;45.568;5.448;2022-09-25T08:11:16;15.88;;;9.50;;
28266;SDS011;15525;45.568;5.448;2022-09-25T08:13:42;12.63;;;8.55;;
28266;SDS011;15525;45.568;5.448;2022-09-25T08:16:12;10.93;;;8.07;;
28266;SDS011;15525;45.568;5.448;2022-09-25T08:18:40;10.80;;;7.50;;
28266;SDS011;15525;45.568;5.448;2022-09-25T08:21:07;12.93;;;8.05;;
28266;SDS011;15525;45.568;5.448;2022-09-25T08:23:33;10.25;;;7.75;;
28266;SDS011;15525;45.568;5.448;2022-09-25T08:25:59;11.48;;;7.95;;
28266;SDS011;15525;45.568;5.448;2022-09-25T08:28:25;10.75;;;7.78;;
28266;SDS011;15525;45.568;5.448;2022-09-25T08:30:52;11.88;;;8.00;;
28266;SDS011;15525;45.568;5.448;2022-09-25T08:33:18;11.45;;;7.80;;
28266;SDS011;15525;45.568;5.448;2022-09-25T08:35:43;11.00;;;7.53;;
28266;SDS011;15525;45.568;5.448;2022-09-25T08:38:19;9.43;;;7.15;;
28266;SDS011;15525;45.568;5.448;2022-09-25T08:40:48;9.32;;;6.63;;
28266;SDS011;15525;45.568;5.448;2022-09-25T08:43:28;9.20;;;6.25;;
28266;SDS011;15525;45.568;5.448;2022-09-25T08:45:56;8.98;;;5.55;;
28266;SDS011;15525;45.568;5.448;2022-09-25T08:48:52;7.30;;;5.47;;
28266;SDS011;15525;45.568;5.448;2022-09-25T08:54:02;5.75;;;4.30;;
28266;SDS011;15525;45.568;5.448;2022-09-25T08:56:29;5.65;;;4.72;;
28266;SDS011;15525;45.568;5.448;2022-09-25T09:02:50;5.47;;;3.85;;
28266;SDS011;15525;45.568;5.448;2022-09-25T09:05:00;5.97;;;3.85;;
28266;SDS011;15525;45.568;5.448;2022-09-25T09:07:37;6.60;;;4.07;;
28266;SDS011;15525;45.568;5.448;2022-09-25T09:13:40;6.47;;;4.00;;
28266;SDS011;15525;45.568;5.448;2022-09-25T09:18:31;5.88;;;4.10;;
28266;SDS011;15525;45.568;5.448;2022-09-25T09:23:35;5.45;;;4.00;;
28266;SDS011;15525;45.568;5.448;2022-09-25T09:26:34;5.55;;;4.15;;
28266;SDS011;15525;45.568;5.448;2022-09-25T09:43:19;5.45;;;4.07;;
28266;SDS011;15525;45.568;5.448;2022-09-25T09:45:52;5.80;;;4.68;;
28266;SDS011;15525;45.568;5.448;2022-09-25T09:51:10;5.25;;;4.18;;
28266;SDS011;15525;45.568;5.448;2022-09-25T09:53:52;4.70;;;3.80;;
28266;SDS011;15525;45.568;5.448;2022-09-25T09:56:32;5.22;;;4.05;;
28266;SDS011;15525;45.568;5.448;2022-09-25T09:59:14;5.97;;;4.28;;
28266;SDS011;15525;45.568;5.448;2022-09-25T10:01:43;4.80;;;3.78;;
28266;SDS011;15525;45.568;5.448;2022-09-25T10:04:16;5.90;;;4.13;;
28266;SDS011;15525;45.568;5.448;2022-09-25T10:06:46;5.55;;;3.70;;
28266;SDS011;15525;45.568;5.448;2022-09-25T10:09:15;6.22;;;4.00;;
28266;SDS011;15525;45.568;5.448;2022-09-25T10:11:42;5.88;;;3.70;;
28266;SDS011;15525;45.568;5.448;2022-09-25T10:14:19;4.88;;;3.88;;
28266;SDS011;15525;45.568;5.448;2022-09-25T10:16:47;6.95;;;4.18;;
28266;SDS011;15525;45.568;5.448;2022-09-25T10:19:21;4.47;;;3.97;;
28266;SDS011;15525;45.568;5.448;2022-09-25T10:25:00;5.80;;;3.88;;
28266;SDS011;15525;45.568;5.448;2022-09-25T10:32:45;5.53;;;3.70;;
28266;SDS011;15525;45.568;5.448;2022-09-25T10:38:02;4.32;;;3.50;;
28266;SDS011;15525;45.568;5.448;2022-09-25T10:45:44;4.28;;;3.63;;
28266;SDS011;15525;45.568;5.448;2022-09-25T10:48:26;4.63;;;3.50;;
28266;SDS011;15525;45.568;5.448;2022-09-25T10:51:14;3.88;;;3.47;;
28266;SDS011;15525;45.568;5.448;2022-09-25T10:53:46;4.10;;;3.10;;
28266;SDS011;15525;45.568;5.448;2022-09-25T10:56:17;4.75;;;3.72;;
28266;SDS011;15525;45.568;5.448;2022-09-25T11:01:28;4.40;;;3.42;;
28266;SDS011;15525;45.568;5.448;2022-09-25T11:03:59;5.22;;;3.90;;
28266;SDS011;15525;45.568;5.448;2022-09-25T11:06:31;5.22;;;3.70;;
28266;SDS011;15525;45.568;5.448;2022-09-25T11:09:04;4.45;;;3.50;;
28266;SDS011;15525;45.568;5.448;2022-09-25T11:11:33;3.42;;;3.10;;
28266;SDS011;15525;45.568;5.448;2022-09-25T11:14:02;3.35;;;2.63;;
28266;SDS011;15525;45.568;5.448;2022-09-25T11:19:26;3.03;;;2.70;;
28266;SDS011;15525;45.568;5.448;2022-09-25T11:30:03;2.83;;;2.53;;
28266;SDS011;15525;45.568;5.448;2022-09-25T11:32:39;3.35;;;3.05;;
28266;SDS011;15525;45.568;5.448;2022-09-25T11:37:59;4.35;;;2.78;;
28266;SDS011;15525;45.568;5.448;2022-09-25T11:40:51;4.15;;;2.55;;
28266;SDS011;15525;45.568;5.448;2022-09-25T11:49:03;3.88;;;3.03;;
28266;SDS011;15525;45.568;5.448;2022-09-25T11:57:09;2.42;;;2.03;;
28266;SDS011;15525;45.568;5.448;2022-09-25T12:08:27;4.78;;;3.10;;
28266;SDS011;15525;45.568;5.448;2022-09-25T12:11:13;3.03;;;2.65;;
28266;SDS011;15525;45.568;5.448;2022-09-25T12:19:45;3.22;;;2.50;;
28266;SDS011;15525;45.568;5.448;2022-09-25T12:28:27;2.85;;;2.47;;
28266;SDS011;15525;45.568;5.448;2022-09-25T12:36:59;3.03;;;2.50;;
28266;SDS011;15525;45.568;5.448;2022-09-25T12:39:39;2.67;;;2.22;;
28266;SDS011;15525;45.568;5.448;2022-09-25T12:42:13;2.50;;;2.30;;
28266;SDS011;15525;45.568;5.448;2022-09-25T12:44:44;2.47;;;2.22;;
28266;SDS011;15525;45.568;5.448;2022-09-25T12:50:24;2.53;;;2.20;;
28266;SDS011;15525;45.568;5.448;2022-09-25T12:53:28;2.45;;;2.20;;
28266;SDS011;15525;45.568;5.448;2022-09-25T12:56:08;2.38;;;2.05;;
28266;SDS011;15525;45.568;5.448;2022-09-25T13:01:19;2.10;;;1.90;;
28266;SDS011;15525;45.568;5.448;2022-09-25T13:04:05;2.65;;;2.05;;
28266;SDS011;15525;45.568;5.448;2022-09-25T13:06:48;1.73;;;1.63;;
28266;SDS011;15525;45.568;5.448;2022-09-25T13:09:45;2.20;;;2.00;;
28266;SDS011;15525;45.568;5.448;2022-09-25T13:15:12;2.28;;;2.08;;
28266;SDS011;15525;45.568;5.448;2022-09-25T13:17:39;2.97;;;2.05;;
28266;SDS011;15525;45.568;5.448;2022-09-25T13:25:42;3.03;;;2.22;;
28266;SDS011;15525;45.568;5.448;2022-09-25T13:28:21;2.78;;;2.30;;
28266;SDS011;15525;45.568;5.448;2022-09-25T13:30:57;2.65;;;2.22;;
28266;SDS011;15525;45.568;5.448;2022-09-25T13:33:30;3.17;;;2.65;;
28266;SDS011;15525;45.568;5.448;2022-09-25T13:36:17;4.35;;;2.85;;
28266;SDS011;15525;45.568;5.448;2022-09-25T13:38:59;3.33;;;2.72;;
28266;SDS011;15525;45.568;5.448;2022-09-25T13:41:53;3.78;;;2.40;;
28266;SDS011;15525;45.568;5.448;2022-09-25T13:44:35;3.60;;;2.60;;
28266;SDS011;15525;45.568;5.448;2022-09-25T13:47:31;3.55;;;2.65;;
28266;SDS011;15525;45.568;5.448;2022-09-25T13:55:37;3.58;;;2.28;;
28266;SDS011;15525;45.568;5.448;2022-09-25T14:00:24;3.13;;;2.30;;
28266;SDS011;15525;45.568;5.448;2022-09-25T14:03:27;2.67;;;2.10;;
28266;SDS011;15525;45.568;5.448;2022-09-25T14:05:55;2.88;;;2.35;;
28266;SDS011;15525;45.568;5.448;2022-09-25T14:08:22;2.47;;;2.03;;
28266;SDS011;15525;45.568;5.448;2022-09-25T14:10:50;2.30;;;1.90;;
28266;SDS011;15525;45.568;5.448;2022-09-25T14:13:20;2.72;;;2.30;;
28266;SDS011;15525;45.568;5.448;2022-09-25T14:15:49;2.15;;;1.80;;
28266;SDS011;15525;45.568;5.448;2022-09-25T14:20:48;2.15;;;1.95;;
28266;SDS011;15525;45.568;5.448;2022-09-25T14:25:44;2.08;;;1.90;;
28266;SDS011;15525;45.568;5.448;2022-09-25T14:28:18;2.35;;;2.00;;
28266;SDS011;15525;45.568;5.448;2022-09-25T14:30:47;2.20;;;2.00;;
28266;SDS011;15525;45.568;5.448;2022-09-25T14:33:43;3.40;;;2.15;;
28266;SDS011;15525;45.568;5.448;2022-09-25T14:44:38;2.45;;;2.25;;
28266;SDS011;15525;45.568;5.448;2022-09-25T14:47:21;3.35;;;2.25;;
28266;SDS011;15525;45.568;5.448;2022-09-25T14:49:54;3.20;;;2.30;;
28266;SDS011;15525;45.568;5.448;2022-09-25T14:52:21;2.95;;;2.10;;
28266;SDS011;15525;45.568;5.448;2022-09-25T14:54:49;3.70;;;2.00;;
28266;SDS011;15525;45.568;5.448;2022-09-25T14:57:22;2.20;;;2.00;;
28266;SDS011;15525;45.568;5.448;2022-09-25T14:59:52;2.40;;;2.20;;
28266;SDS011;15525;45.568;5.448;2022-09-25T15:02:27;2.45;;;1.83;;
28266;SDS011;15525;45.568;5.448;2022-09-25T15:04:58;2.33;;;2.13;;
28266;SDS011;15525;45.568;5.448;2022-09-25T15:07:41;3.17;;;2.00;;
28266;SDS011;15525;45.568;5.448;2022-09-25T15:12:48;2.92;;;2.40;;
28266;SDS011;15525;45.568;5.448;2022-09-25T15:15:15;2.22;;;2.03;;
28266;SDS011;15525;45.568;5.448;2022-09-25T15:17:48;3.70;;;2.40;;
28266;SDS011;15525;45.568;5.448;2022-09-25T15:20:22;2.35;;;2.15;;
28266;SDS011;15525;45.568;5.448;2022-09-25T15:25:25;2.38;;;2.05;;
28266;SDS011;15525;45.568;5.448;2022-09-25T15:27:54;1.90;;;1.70;;
28266;SDS011;15525;45.568;5.448;2022-09-25T15:30:19;3.13;;;1.90;;
28266;SDS011;15525;45.568;5.448;2022-09-25T15:32:46;2.38;;;1.80;;
28266;SDS011;15525;45.568;5.448;2022-09-25T15:35:16;2.10;;;1.90;;
28266;SDS011;15525;45.568;5.448;2022-09-25T15:37:45;2.85;;;1.92;;
28266;SDS011;15525;45.568;5.448;2022-09-25T15:40:22;2.60;;;1.60;;
28266;SDS011;15525;45.568;5.448;2022-09-25T15:42:51;3.63;;;1.73;;
28266;SDS011;15525;45.568;5.448;2022-09-25T15:45:32;1.60;;;1.50;;
28266;SDS011;15525;45.568;5.448;2022-09-25T15:48:08;1.85;;;1.60;;
28266;SDS011;15525;45.568;5.448;2022-09-25T15:50:40;1.88;;;1.60;;
28266;SDS011;15525;45.568;5.448;2022-09-25T15:53:13;2.20;;;1.70;;
28266;SDS011;15525;45.568;5.448;2022-09-25T15:55:43;2.20;;;1.55;;
28266;SDS011;15525;45.568;5.448;2022-09-25T15:58:10;2.72;;;1.67;;
28266;SDS011;15525;45.568;5.448;2022-09-25T16:00:39;1.90;;;1.70;;
28266;SDS011;15525;45.568;5.448;2022-09-25T16:03:51;4.00;;;1.80;;
28266;SDS011;15525;45.568;5.448;2022-09-25T16:06:37;1.90;;;1.80;;
28266;SDS011;15525;45.568;5.448;2022-09-25T16:09:21;2.03;;;1.83;;
28266;SDS011;15525;45.568;5.448;2022-09-25T16:14:46;1.98;;;1.80;;
28266;SDS011;15525;45.568;5.448;2022-09-25T16:17:21;2.65;;;1.95;;
28266;SDS011;15525;45.568;5.448;2022-09-25T16:19:59;2.58;;;1.95;;
28266;SDS011;15525;45.568;5.448;2022-09-25T16:22:33;3.38;;;2.10;;
28266;SDS011;15525;45.568;5.448;2022-09-25T16:25:12;2.13;;;1.92;;
28266;SDS011;15525;45.568;5.448;2022-09-25T16:27:41;2.42;;;1.98;;
28266;SDS011;15525;45.568;5.448;2022-09-25T16:30:16;2.60;;;2.08;;
28266;SDS011;15525;45.568;5.448;2022-09-25T16:32:44;3.40;;;2.28;;
28266;SDS011;15525;45.568;5.448;2022-09-25T16:35:19;3.85;;;1.90;;
28266;SDS011;15525;45.568;5.448;2022-09-25T16:37:51;3.25;;;2.10;;
28266;SDS011;15525;45.568;5.448;2022-09-25T16:42:42;5.35;;;2.83;;
28266;SDS011;15525;45.568;5.448;2022-09-25T16:47:42;11.32;;;2.40;;
28266;SDS011;15525;45.568;5.448;2022-09-25T16:50:09;2.83;;;2.38;;
28266;SDS011;15525;45.568;5.448;2022-09-25T16:52:37;2.90;;;2.53;;
28266;SDS011;15525;45.568;5.448;2022-09-25T16:55:10;3.20;;;2.10;;
28266;SDS011;15525;45.568;5.448;2022-09-25T16:57:48;2.05;;;1.80;;
28266;SDS011;15525;45.568;5.448;2022-09-25T17:00:16;2.42;;;1.95;;
28266;SDS011;15525;45.568;5.448;2022-09-25T17:02:47;2.63;;;2.05;;
28266;SDS011;15525;45.568;5.448;2022-09-25T17:05:18;2.65;;;2.40;;
28266;SDS011;15525;45.568;5.448;2022-09-25T17:07:52;3.33;;;2.00;;
28266;SDS011;15525;45.568;5.448;2022-09-25T17:10:20;3.13;;;2.42;;
28266;SDS011;15525;45.568;5.448;2022-09-25T17:12:48;3.08;;;2.40;;
28266;SDS011;15525;45.568;5.448;2022-09-25T17:15:16;3.08;;;2.47;;
28266;SDS011;15525;45.568;5.448;2022-09-25T17:17:45;3.05;;;2.30;;
28266;SDS011;15525;45.568;5.448;2022-09-25T17:20:11;4.90;;;2.75;;
28266;SDS011;15525;45.568;5.448;2022-09-25T17:22:36;3.70;;;2.88;;
28266;SDS011;15525;45.568;5.448;2022-09-25T17:25:07;3.17;;;2.80;;
28266;SDS011;15525;45.568;5.448;2022-09-25T17:27:43;4.13;;;2.95;;
28266;SDS011;15525;45.568;5.448;2022-09-25T17:30:08;3.78;;;2.80;;
28266;SDS011;15525;45.568;5.448;2022-09-25T17:32:34;3.10;;;2.53;;
28266;SDS011;15525;45.568;5.448;2022-09-25T17:35:00;3.17;;;2.50;;
28266;SDS011;15525;45.568;5.448;2022-09-25T17:37:25;3.42;;;2.78;;
28266;SDS011;15525;45.568;5.448;2022-09-25T17:39:51;4.50;;;2.85;;
28266;SDS011;15525;45.568;5.448;2022-09-25T17:42:16;5.00;;;3.33;;
28266;SDS011;15525;45.568;5.448;2022-09-25T17:44:42;4.85;;;3.10;;
28266;SDS011;15525;45.568;5.448;2022-09-25T17:47:08;5.85;;;3.00;;
28266;SDS011;15525;45.568;5.448;2022-09-25T17:49:34;6.25;;;3.65;;
28266;SDS011;15525;45.568;5.448;2022-09-25T17:52:00;6.00;;;3.25;;
28266;SDS011;15525;45.568;5.448;2022-09-25T17:54:27;3.80;;;3.05;;
28266;SDS011;15525;45.568;5.448;2022-09-25T17:56:55;5.70;;;3.20;;
28266;SDS011;15525;45.568;5.448;2022-09-25T17:59:20;4.40;;;3.25;;
28266;SDS011;15525;45.568;5.448;2022-09-25T18:01:46;4.93;;;2.90;;
28266;SDS011;15525;45.568;5.448;2022-09-25T18:04:15;3.20;;;2.90;;